createdAt,value
2023-01-03T00:01:59.771Z,0.60
2023-01-03T00:04:26.655Z,0.77
2023-01-03T00:06:54.130Z,0.60
2023-01-03T00:09:23.351Z,0.50
2023-01-03T00:12:10.643Z,0.70
2023-01-03T00:14:39.652Z,0.70
2023-01-03T00:17:07.616Z,0.80
2023-01-03T00:19:38.091Z,0.70
2023-01-03T00:22:04.925Z,0.90
2023-01-03T00:24:31.931Z,0.60
2023-01-03T00:26:58.460Z,1.00
2023-01-03T00:29:25.345Z,0.88
2023-01-03T00:31:51.839Z,0.70
2023-01-03T00:34:18.343Z,0.90
2023-01-03T00:36:44.968Z,0.60
2023-01-03T00:39:14.959Z,0.88
2023-01-03T00:41:42.015Z,0.60
2023-01-03T00:44:09.197Z,0.60
2023-01-03T00:46:36.314Z,0.82
2023-01-03T00:49:04.402Z,1.00
2023-01-03T00:51:33.234Z,1.10
2023-01-03T00:54:02.054Z,2.15
2023-01-03T00:56:31.576Z,2.53
2023-01-03T00:58:58.303Z,1.52
2023-01-03T01:01:28.332Z,0.88
2023-01-03T01:03:59.904Z,1.25
2023-01-03T01:06:32.331Z,0.98
2023-01-03T01:09:01.133Z,0.63
2023-01-03T01:11:29.481Z,0.70
2023-01-03T01:13:56.673Z,0.60
2023-01-03T01:16:25.605Z,0.70
2023-01-03T01:18:53.853Z,0.60
2023-01-03T01:21:24.292Z,0.60
2023-01-03T01:23:51.543Z,0.70
2023-01-03T01:26:20.204Z,0.60
2023-01-03T01:28:47.275Z,1.23
2023-01-03T01:31:25.904Z,0.90
2023-01-03T01:33:53.636Z,0.73
2023-01-03T01:36:28.839Z,0.80
2023-01-03T01:38:58.696Z,0.70
2023-01-03T01:41:44.808Z,1.08
2023-01-03T01:44:48.488Z,0.85
2023-01-03T01:47:27.188Z,0.85
2023-01-03T01:49:59.891Z,1.58
2023-01-03T01:52:28.453Z,1.20
2023-01-03T01:54:55.954Z,1.08
2023-01-03T01:57:25.846Z,1.10
2023-01-03T01:59:52.431Z,1.27
2023-01-03T02:02:21.905Z,1.65
2023-01-03T02:04:52.163Z,1.40
2023-01-03T02:07:20.869Z,2.08
2023-01-03T02:09:49.119Z,1.42
2023-01-03T02:12:44.464Z,1.50
2023-01-03T02:15:40.186Z,1.40
2023-01-03T02:18:29.737Z,2.03
2023-01-03T02:21:24.320Z,1.40
2023-01-03T02:23:59.804Z,1.52
2023-01-03T02:26:26.197Z,1.85
2023-01-03T02:29:34.780Z,1.60
2023-01-03T02:32:09.769Z,1.52
2023-01-03T02:34:39.230Z,1.52
2023-01-03T02:37:43.427Z,1.50
2023-01-03T02:43:02.224Z,1.80
2023-01-03T02:45:53.738Z,1.60
2023-01-03T02:48:45.136Z,1.33
2023-01-03T02:51:20.113Z,1.80
2023-01-03T02:53:49.188Z,1.88
2023-01-03T02:56:23.260Z,2.00
2023-01-03T02:58:55.392Z,2.28
2023-01-03T03:01:23.038Z,1.80
2023-01-03T03:03:49.958Z,2.38
2023-01-03T03:06:25.206Z,2.45
2023-01-03T03:08:51.705Z,2.15
2023-01-03T03:11:37.319Z,1.95
2023-01-03T03:14:17.923Z,2.03
2023-01-03T03:16:48.785Z,2.10
2023-01-03T03:19:47.432Z,2.22
2023-01-03T03:23:00.735Z,2.40
2023-01-03T03:25:50.740Z,1.98
2023-01-03T03:28:36.850Z,2.40
2023-01-03T03:31:19.266Z,2.60
2023-01-03T03:34:03.614Z,2.13
2023-01-03T03:36:40.664Z,2.20
2023-01-03T03:39:29.613Z,2.40
2023-01-03T03:42:29.216Z,2.22
2023-01-03T03:45:02.160Z,2.15
2023-01-03T03:47:34.969Z,2.10
2023-01-03T03:50:24.409Z,2.00
2023-01-03T03:52:57.380Z,1.50
2023-01-03T03:55:39.480Z,1.55
2023-01-03T03:58:11.626Z,1.30
2023-01-03T04:00:41.214Z,1.30
2023-01-03T04:03:09.415Z,1.67
2023-01-03T04:05:43.724Z,1.17
2023-01-03T04:08:10.325Z,2.00
2023-01-03T04:10:38.408Z,2.10
2023-01-03T04:13:05.586Z,1.70
2023-01-03T04:15:33.197Z,1.98
2023-01-03T04:18:02.493Z,2.25
2023-01-03T04:20:29.551Z,2.17
2023-01-03T04:22:56.433Z,2.85
2023-01-03T04:25:23.131Z,3.28
2023-01-03T04:27:49.587Z,3.45
2023-01-03T04:30:16.117Z,2.80
2023-01-03T04:32:42.670Z,2.88
2023-01-03T04:35:09.497Z,3.08
2023-01-03T04:37:36.091Z,3.10
2023-01-03T04:40:02.626Z,2.80
2023-01-03T04:42:47.810Z,2.50
2023-01-03T04:45:14.459Z,2.08
2023-01-03T04:47:40.965Z,2.40
2023-01-03T04:50:08.046Z,2.28
2023-01-03T04:52:34.538Z,1.65
2023-01-03T04:55:01.101Z,2.00
2023-01-03T04:57:27.597Z,1.80
2023-01-03T04:59:54.134Z,1.73
2023-01-03T05:02:20.722Z,2.30
2023-01-03T05:04:47.371Z,2.47
2023-01-03T05:07:13.829Z,2.78
2023-01-03T05:09:40.376Z,2.50
2023-01-03T05:12:07.019Z,2.35
2023-01-03T05:14:33.575Z,2.40
2023-01-03T05:17:00.211Z,3.05
2023-01-03T05:19:26.865Z,2.28
2023-01-03T05:22:12.014Z,2.50
2023-01-03T05:24:56.763Z,2.80
2023-01-03T05:27:23.784Z,2.50
2023-01-03T05:29:52.910Z,2.17
2023-01-03T05:32:19.468Z,2.55
2023-01-03T05:34:46.089Z,1.98
2023-01-03T05:37:12.640Z,2.10
2023-01-03T05:39:39.121Z,2.65
2023-01-03T05:42:05.810Z,2.10
2023-01-03T05:44:34.183Z,2.38
2023-01-03T05:47:02.879Z,2.63
2023-01-03T05:49:29.479Z,2.55
2023-01-03T05:51:56.052Z,2.47
2023-01-03T05:54:22.608Z,2.70
2023-01-03T05:56:50.526Z,2.90
2023-01-03T05:59:17.110Z,2.67
2023-01-03T06:01:43.617Z,2.95
2023-01-03T06:04:10.190Z,2.97
2023-01-03T06:06:36.750Z,2.92
2023-01-03T06:09:03.399Z,2.30
2023-01-03T06:11:29.980Z,2.25
2023-01-03T06:13:56.915Z,2.30
2023-01-03T06:16:42.093Z,2.30
2023-01-03T06:19:09.133Z,2.03
2023-01-03T06:21:36.396Z,1.83
2023-01-03T06:24:03.046Z,1.92
2023-01-03T06:26:29.667Z,2.00
2023-01-03T06:28:56.334Z,1.98
2023-01-03T06:31:23.083Z,2.10
2023-01-03T06:33:49.828Z,1.90
2023-01-03T06:36:19.036Z,1.88
2023-01-03T06:38:45.693Z,2.00
2023-01-03T06:41:13.448Z,1.80
2023-01-03T06:43:40.623Z,1.58
2023-01-03T06:46:25.897Z,2.30
2023-01-03T06:49:10.987Z,1.42
2023-01-03T06:51:56.411Z,1.60
2023-01-03T06:54:26.071Z,1.10
2023-01-03T06:56:53.819Z,1.67
2023-01-03T06:59:20.917Z,1.48
2023-01-03T07:01:49.448Z,1.58
2023-01-03T07:04:16.190Z,1.70
2023-01-03T07:06:42.849Z,1.35
2023-01-03T07:09:10.159Z,1.83
2023-01-03T07:11:37.612Z,1.60
2023-01-03T07:14:05.544Z,1.35
2023-01-03T07:16:43.991Z,1.70
2023-01-03T07:19:14.016Z,1.60
2023-01-03T07:21:41.069Z,1.92
2023-01-03T07:24:10.374Z,1.67
2023-01-03T07:26:36.857Z,1.88
2023-01-03T07:29:06.163Z,2.20
2023-01-03T07:31:33.148Z,1.88
2023-01-03T07:34:01.055Z,2.10
2023-01-03T07:36:27.887Z,1.83
2023-01-03T07:38:55.730Z,2.13
2023-01-03T07:41:22.828Z,2.20
2023-01-03T07:43:49.988Z,2.33
2023-01-03T07:46:22.125Z,2.00
2023-01-03T07:48:51.346Z,2.03
2023-01-03T07:51:20.611Z,2.00
2023-01-03T07:53:51.023Z,1.95
2023-01-03T07:56:21.909Z,2.35
2023-01-03T07:58:49.258Z,2.20
2023-01-03T08:01:19.261Z,2.63
2023-01-03T08:03:46.500Z,2.72
2023-01-03T08:06:15.896Z,2.78
2023-01-03T08:08:43.474Z,2.53
2023-01-03T08:11:31.052Z,2.28
2023-01-03T08:13:57.849Z,2.28
2023-01-03T08:16:24.478Z,2.00
2023-01-03T08:18:51.379Z,2.50
2023-01-03T08:21:18.056Z,2.25
2023-01-03T08:23:44.691Z,1.80
2023-01-03T08:26:15.961Z,2.60
2023-01-03T08:28:44.122Z,2.30
2023-01-03T08:31:18.416Z,2.47
2023-01-03T08:33:52.922Z,2.00
2023-01-03T08:36:20.324Z,2.30
2023-01-03T08:38:53.429Z,2.13
2023-01-03T08:41:23.367Z,2.42
2023-01-03T08:43:49.971Z,2.17
2023-01-03T08:46:17.931Z,2.75
2023-01-03T08:48:45.199Z,2.80
2023-01-03T08:51:11.865Z,1.85
2023-01-03T08:53:38.443Z,2.38
2023-01-03T08:56:06.097Z,2.17
2023-01-03T08:58:32.641Z,2.10
2023-01-03T09:01:03.632Z,2.17
2023-01-03T09:03:30.303Z,2.20
2023-01-03T09:06:01.511Z,2.50
2023-01-03T09:08:31.117Z,2.22
2023-01-03T09:10:58.150Z,2.38
2023-01-03T09:13:24.893Z,2.22
2023-01-03T09:15:51.485Z,2.60
2023-01-03T09:18:17.979Z,2.28
2023-01-03T09:20:44.423Z,2.38
2023-01-03T09:23:10.976Z,2.45
2023-01-03T09:25:37.917Z,3.42
2023-01-03T09:28:04.539Z,2.58
2023-01-03T09:30:31.071Z,2.80
2023-01-03T09:32:57.567Z,3.30
2023-01-03T09:35:24.125Z,3.10
2023-01-03T09:37:50.859Z,3.10
2023-01-03T09:40:17.620Z,3.08
2023-01-03T09:43:02.972Z,3.33
2023-01-03T09:45:32.828Z,2.92
2023-01-03T09:48:01.672Z,2.65
2023-01-03T09:50:50.704Z,2.80
2023-01-03T09:53:43.203Z,3.30
2023-01-03T09:56:31.028Z,3.65
2023-01-03T09:59:15.655Z,3.63
2023-01-03T10:02:28.320Z,3.55
2023-01-03T10:05:11.285Z,3.67
2023-01-03T10:07:59.157Z,3.75
2023-01-03T10:10:44.400Z,3.33
2023-01-03T10:13:19.694Z,3.58
2023-01-03T10:15:58.207Z,3.95
2023-01-03T10:18:43.617Z,4.10
2023-01-03T10:21:41.196Z,4.03
2023-01-03T10:24:30.228Z,4.25
2023-01-03T10:27:16.479Z,4.43
2023-01-03T10:29:45.168Z,4.00
2023-01-03T10:32:33.134Z,4.78
2023-01-03T10:35:17.426Z,4.82
2023-01-03T10:37:44.668Z,4.90
2023-01-03T10:40:11.955Z,4.75
2023-01-03T10:42:40.010Z,5.45
2023-01-03T10:45:21.378Z,5.35
2023-01-03T10:47:59.226Z,5.00
2023-01-03T10:50:26.570Z,6.22
2023-01-03T10:53:21.254Z,4.95
2023-01-03T10:55:53.075Z,5.28
2023-01-03T10:58:29.292Z,5.38
2023-01-03T11:01:23.837Z,5.78
2023-01-03T11:04:15.186Z,4.50
2023-01-03T11:06:58.743Z,4.38
2023-01-03T11:11:59.535Z,3.65
2023-01-03T11:14:27.803Z,3.85
2023-01-03T11:17:04.592Z,4.00
2023-01-03T11:19:33.735Z,4.20
2023-01-03T11:22:41.799Z,4.28
2023-01-03T11:25:29.605Z,4.70
2023-01-03T11:28:02.136Z,4.07
2023-01-03T11:30:45.194Z,4.03
2023-01-03T11:33:22.725Z,3.50
2023-01-03T11:36:13.139Z,3.42
2023-01-03T11:39:22.811Z,3.67
2023-01-03T11:42:02.082Z,3.00
2023-01-03T11:44:58.221Z,3.28
2023-01-03T11:47:44.937Z,3.70
2023-01-03T11:51:00.894Z,4.47
2023-01-03T11:53:55.860Z,2.95
2023-01-03T11:56:34.022Z,3.30
2023-01-03T11:59:24.545Z,3.03
2023-01-03T12:02:22.242Z,2.50
2023-01-03T12:04:57.853Z,2.63
2023-01-03T12:07:48.528Z,2.75
2023-01-03T12:10:42.885Z,3.03
2023-01-03T12:15:48.489Z,6.47
2023-01-03T12:18:26.606Z,30.90
2023-01-03T12:20:59.763Z,3.13
2023-01-03T12:23:26.185Z,2.10
2023-01-03T12:25:59.706Z,1.92
2023-01-03T12:28:38.577Z,2.47
2023-01-03T12:31:20.008Z,2.40
2023-01-03T12:34:05.159Z,2.85
2023-01-03T12:36:37.765Z,3.10
2023-01-03T12:39:41.979Z,3.17
2023-01-03T12:42:14.391Z,3.08
2023-01-03T12:44:44.723Z,3.63
2023-01-03T12:47:23.816Z,3.40
2023-01-03T12:50:23.581Z,3.42
2023-01-03T12:53:27.183Z,3.22
2023-01-03T12:56:09.095Z,3.30
2023-01-03T12:58:57.228Z,3.25
2023-01-03T13:01:42.110Z,3.47
2023-01-03T13:04:15.299Z,2.80
2023-01-03T13:06:50.817Z,3.13
2023-01-03T13:09:31.979Z,3.22
2023-01-03T13:12:13.894Z,3.08
2023-01-03T13:14:51.335Z,3.58
2023-01-03T13:17:20.214Z,2.88
2023-01-03T13:19:52.955Z,3.38
2023-01-03T13:22:28.540Z,5.32
2023-01-03T13:24:55.120Z,4.20
2023-01-03T13:27:34.106Z,4.05
2023-01-03T13:30:00.675Z,7.07
2023-01-03T13:32:36.252Z,8.43
2023-01-03T13:35:04.584Z,4.22
2023-01-03T13:37:47.859Z,3.38
2023-01-03T13:40:34.653Z,2.95
2023-01-03T13:43:17.430Z,3.42
2023-01-03T13:45:43.834Z,3.45
2023-01-03T13:48:12.979Z,4.35
2023-01-03T13:50:39.459Z,3.63
2023-01-03T13:53:11.827Z,2.92
2023-01-03T13:55:54.257Z,2.85
2023-01-03T13:58:24.499Z,3.05
2023-01-03T14:01:06.447Z,2.90
2023-01-03T14:03:48.754Z,2.80
2023-01-03T14:06:50.770Z,3.15
2023-01-03T14:09:23.076Z,3.17
2023-01-03T14:12:09.030Z,3.42
2023-01-03T14:14:39.909Z,3.25
2023-01-03T14:17:17.436Z,3.05
2023-01-03T14:19:53.217Z,2.97
2023-01-03T14:22:31.945Z,2.88
2023-01-03T14:24:59.587Z,3.17
2023-01-03T14:27:46.508Z,2.53
2023-01-03T14:30:21.925Z,4.28
2023-01-03T14:32:48.619Z,3.80
2023-01-03T14:35:33.343Z,3.28
2023-01-03T14:38:06.223Z,3.00
2023-01-03T14:40:33.611Z,3.17
2023-01-03T14:43:04.669Z,2.90
2023-01-03T14:45:31.207Z,2.33
2023-01-03T14:47:58.066Z,2.70
2023-01-03T14:50:29.992Z,2.50
2023-01-03T14:53:02.311Z,2.67
2023-01-03T14:55:31.635Z,3.53
2023-01-03T14:57:59.009Z,3.20
2023-01-03T15:00:35.470Z,2.83
2023-01-03T15:03:03.919Z,2.70
2023-01-03T15:05:32.981Z,2.90
2023-01-03T15:08:21.502Z,2.90
2023-01-03T15:10:49.595Z,3.25
2023-01-03T15:13:23.054Z,3.10
2023-01-03T15:15:58.571Z,2.72
2023-01-03T15:18:28.047Z,3.10
2023-01-03T15:20:56.381Z,3.40
2023-01-03T15:23:38.048Z,3.63
2023-01-03T15:26:07.050Z,3.35
2023-01-03T15:28:48.419Z,2.78
2023-01-03T15:31:23.925Z,3.15
2023-01-03T15:34:12.809Z,3.67
2023-01-03T15:36:39.997Z,4.10
2023-01-03T15:39:18.442Z,3.38
2023-01-03T15:42:35.058Z,3.85
2023-01-03T15:44:50.295Z,4.50
2023-01-03T15:47:19.792Z,5.00
2023-01-03T15:49:49.980Z,5.10
2023-01-03T15:52:17.179Z,5.13
2023-01-03T15:54:44.684Z,5.57
2023-01-03T15:57:20.481Z,5.38
2023-01-03T16:00:00.491Z,4.22
2023-01-03T16:02:27.777Z,3.65
2023-01-03T16:04:54.612Z,4.47
2023-01-03T16:07:21.425Z,3.72
2023-01-03T16:09:48.291Z,4.20
2023-01-03T16:12:18.522Z,4.30
2023-01-03T16:14:48.525Z,5.28
2023-01-03T16:17:24.871Z,4.63
2023-01-03T16:19:52.492Z,4.65
2023-01-03T16:22:36.513Z,3.60
2023-01-03T16:25:05.767Z,6.57
2023-01-03T16:27:32.618Z,5.65
2023-01-03T16:29:59.271Z,5.63
2023-01-03T16:32:28.559Z,5.13
2023-01-03T16:35:02.951Z,4.05
2023-01-03T16:37:29.525Z,3.85
2023-01-03T16:39:56.574Z,3.00
2023-01-03T16:42:27.613Z,3.88
2023-01-03T16:44:55.077Z,3.83
2023-01-03T16:47:24.005Z,3.45
2023-01-03T16:49:57.673Z,3.45
2023-01-03T16:52:46.323Z,3.47
2023-01-03T16:55:32.220Z,2.90
2023-01-03T16:58:00.310Z,3.28
2023-01-03T17:00:29.897Z,3.05
2023-01-03T17:02:59.892Z,3.40
2023-01-03T17:05:29.295Z,3.03
2023-01-03T17:08:02.743Z,3.17
2023-01-03T17:12:59.285Z,3.33
2023-01-03T17:15:26.512Z,3.05
2023-01-03T17:17:53.073Z,3.50
2023-01-03T17:20:21.596Z,3.80
2023-01-03T17:23:00.033Z,3.22
2023-01-03T17:25:27.116Z,3.03
2023-01-03T17:27:56.900Z,2.95
2023-01-03T17:30:26.222Z,3.38
2023-01-03T17:32:53.276Z,4.25
2023-01-03T17:35:19.803Z,4.65
2023-01-03T17:38:23.235Z,4.35
2023-01-03T17:40:34.513Z,3.85
2023-01-03T17:43:02.426Z,4.70
2023-01-03T17:45:48.216Z,5.03
2023-01-03T17:48:40.915Z,4.72
2023-01-03T17:51:07.374Z,4.55
2023-01-03T17:53:33.901Z,4.45
2023-01-03T17:56:00.408Z,5.30
2023-01-03T17:58:36.978Z,6.18
2023-01-03T18:01:05.801Z,6.40
2023-01-03T18:03:32.548Z,6.20
2023-01-03T18:06:02.759Z,7.60
2023-01-03T18:08:29.309Z,7.28
2023-01-03T18:10:55.937Z,6.38
2023-01-03T18:13:34.783Z,5.15
2023-01-03T18:16:01.936Z,6.35
2023-01-03T18:18:29.043Z,5.95
2023-01-03T18:20:56.988Z,7.97
2023-01-03T18:23:33.862Z,7.53
2023-01-03T18:26:04.377Z,6.28
2023-01-03T18:28:31.404Z,6.13
2023-01-03T18:30:58.158Z,5.90
2023-01-03T18:33:25.500Z,6.75
2023-01-03T18:35:52.915Z,6.38
2023-01-03T18:38:26.254Z,6.40
2023-01-03T18:40:57.269Z,5.90
2023-01-03T18:43:27.098Z,7.93
2023-01-03T18:45:54.227Z,7.50
2023-01-03T18:48:22.357Z,6.75
2023-01-03T18:50:57.867Z,6.90
2023-01-03T18:53:28.450Z,6.68
2023-01-03T18:55:55.169Z,5.72
2023-01-03T18:58:31.684Z,5.95
2023-01-03T19:00:58.369Z,5.82
2023-01-03T19:03:28.052Z,6.60
2023-01-03T19:05:55.602Z,5.78
2023-01-03T19:08:24.819Z,7.18
2023-01-03T19:10:52.038Z,7.10
2023-01-03T19:13:26.424Z,6.45
2023-01-03T19:15:53.872Z,6.47
2023-01-03T19:18:20.594Z,5.57
2023-01-03T19:20:47.368Z,5.32
2023-01-03T19:23:24.010Z,6.07
2023-01-03T19:25:50.835Z,6.13
2023-01-03T19:28:23.401Z,5.18
2023-01-03T19:30:50.730Z,5.73
2023-01-03T19:33:19.397Z,6.43
2023-01-03T19:35:46.247Z,5.78
2023-01-03T19:38:13.301Z,5.60
2023-01-03T19:40:43.062Z,6.07
2023-01-03T19:43:21.577Z,5.40
2023-01-03T19:45:48.729Z,5.00
2023-01-03T19:48:22.616Z,4.90
2023-01-03T19:50:50.346Z,6.07
2023-01-03T19:53:16.908Z,7.43
2023-01-03T19:55:46.619Z,7.95
2023-01-03T19:58:24.537Z,8.30
2023-01-03T20:00:52.099Z,6.97
2023-01-03T20:03:31.273Z,5.70
2023-01-03T20:05:58.772Z,5.82
2023-01-03T20:08:25.613Z,5.57
2023-01-03T20:10:53.710Z,5.63
2023-01-03T20:13:23.663Z,6.30
2023-01-03T20:15:52.880Z,5.90
2023-01-03T20:18:36.120Z,6.53
2023-01-03T20:21:21.955Z,6.22
2023-01-03T20:23:55.845Z,6.30
2023-01-03T20:26:25.216Z,6.28
2023-01-03T20:28:53.205Z,6.05
2023-01-03T20:31:20.764Z,5.85
2023-01-03T20:33:48.050Z,6.40
2023-01-03T20:36:23.584Z,6.65
2023-01-03T20:38:53.910Z,6.15
2023-01-03T20:41:20.548Z,7.13
2023-01-03T20:43:48.939Z,7.05
2023-01-03T20:46:20.705Z,6.47
2023-01-03T20:48:57.485Z,7.20
2023-01-03T20:51:27.144Z,6.75
2023-01-03T20:53:55.280Z,6.60
2023-01-03T20:56:22.703Z,7.00
2023-01-03T20:58:49.177Z,6.57
2023-01-03T21:01:15.870Z,6.82
2023-01-03T21:03:42.556Z,6.60
2023-01-03T21:06:22.170Z,6.68
2023-01-03T21:08:55.492Z,7.30
2023-01-03T21:11:30.915Z,6.93
2023-01-03T21:13:59.381Z,6.45
2023-01-03T21:16:29.002Z,7.00
2023-01-03T21:18:56.478Z,6.18
2023-01-03T21:21:23.974Z,7.15
2023-01-03T21:23:50.539Z,6.63
2023-01-03T21:26:17.041Z,6.40
2023-01-03T21:28:43.535Z,6.38
2023-01-03T21:31:17.274Z,6.53
2023-01-03T21:33:44.240Z,6.32
2023-01-03T21:36:24.809Z,6.97
2023-01-03T21:38:51.944Z,7.22
2023-01-03T21:41:27.403Z,7.28
2023-01-03T21:43:58.401Z,7.05
2023-01-03T21:46:26.195Z,7.00
2023-01-03T21:48:54.044Z,6.05
2023-01-03T21:51:33.500Z,6.43
2023-01-03T21:54:08.537Z,7.07
2023-01-03T21:56:45.182Z,5.85
2023-01-03T21:59:16.585Z,5.97
2023-01-03T22:02:03.579Z,5.60
2023-01-03T22:04:31.042Z,6.43
2023-01-03T22:07:00.640Z,5.72
2023-01-03T22:09:47.454Z,7.13
2023-01-03T22:12:15.943Z,6.68
2023-01-03T22:14:43.377Z,7.50
2023-01-03T22:17:09.912Z,7.97
2023-01-03T22:19:36.472Z,8.77
2023-01-03T22:22:03.093Z,10.23
2023-01-03T22:24:29.669Z,11.05
2023-01-03T22:26:56.144Z,8.43
2023-01-03T22:29:22.601Z,10.27
2023-01-03T22:31:49.122Z,8.65
2023-01-03T22:34:15.588Z,10.35
2023-01-03T22:36:42.032Z,7.03
2023-01-03T22:39:08.536Z,8.18
2023-01-03T22:41:35.027Z,9.18
2023-01-03T22:44:01.521Z,9.35
2023-01-03T22:46:28.071Z,8.82
2023-01-03T22:48:55.366Z,10.90
2023-01-03T22:51:22.045Z,11.07
2023-01-03T22:53:49.218Z,12.45
2023-01-03T22:56:17.085Z,14.23
2023-01-03T22:58:44.829Z,12.90
2023-01-03T23:01:17.822Z,12.07
2023-01-03T23:03:46.216Z,11.23
2023-01-03T23:06:15.667Z,12.35
2023-01-03T23:08:42.354Z,10.35
2023-01-03T23:11:34.824Z,9.30
2023-01-03T23:14:07.864Z,9.40
2023-01-03T23:16:34.583Z,8.98
2023-01-03T23:19:27.356Z,9.82
2023-01-03T23:21:54.123Z,9.50
2023-01-03T23:24:23.943Z,9.48
2023-01-03T23:26:51.612Z,9.30
2023-01-03T23:29:18.643Z,9.20
2023-01-03T23:31:45.520Z,10.30
2023-01-03T23:34:12.615Z,10.13
2023-01-03T23:36:39.510Z,10.00
2023-01-03T23:39:06.034Z,12.23
2023-01-03T23:41:32.715Z,13.02
2023-01-03T23:43:59.182Z,11.55
2023-01-03T23:46:25.779Z,12.90
2023-01-03T23:48:56.541Z,13.15
2023-01-03T23:51:24.115Z,12.75
2023-01-03T23:53:51.292Z,14.30
2023-01-03T23:56:20.855Z,13.23
2023-01-03T23:58:47.897Z,13.77
